Time;durP1;ratioP1;P1;durP2;ratioP2;P2;SDS_P1;SDS_P2;PMS_P1;PMS_P2;Temp;Humidity;BMP_temperature;BMP_pressure;BME280_temperature;BME280_humidity;BME280_pressure;Samples;Min_cycle;Max_cycle;Signal;HPM_P1;HPM_P2
2022/06/01 00:00:31;;;;;;;6.55;4.28;;;16.90;89.90;;;;;;5072606;28;20204;-73
2022/06/01 00:02:59;;;;;;;7.07;3.93;;;16.90;90.00;;;;;;5075435;28;20205;-73
2022/06/01 00:05:27;;;;;;;4.97;3.60;;;16.90;90.20;;;;;;5074502;28;20256;-73
2022/06/01 00:07:54;;;;;;;7.23;3.73;;;16.90;90.70;;;;;;5070445;28;20205;-73
2022/06/01 00:10:21;;;;;;;5.55;3.25;;;16.90;90.80;;;;;;5065397;28;20240;-72
2022/06/01 00:12:48;;;;;;;4.35;3.70;;;16.90;91.30;;;;;;5078650;28;20205;-74
2022/06/01 00:15:18;;;;;;;5.47;3.87;;;16.90;91.90;;;;;;5075050;28;20260;-75
2022/06/01 00:17:45;;;;;;;7.82;3.97;;;16.90;92.30;;;;;;5075458;28;20244;-73
2022/06/01 00:20:14;;;;;;;5.93;4.10;;;16.90;93.00;;;;;;5076691;28;20205;-73
2022/06/01 00:22:42;;;;;;;6.83;3.93;;;16.80;94.00;;;;;;5085985;28;20267;-74
2022/06/01 00:25:10;;;;;;;7.60;4.53;;;16.70;95.00;;;;;;5079999;28;20264;-73
2022/06/01 00:27:38;;;;;;;7.47;4.60;;;16.70;96.40;;;;;;5071772;28;20697;-73
2022/06/01 00:30:07;;;;;;;7.88;5.05;;;16.70;97.90;;;;;;5076406;28;20308;-71
2022/06/01 00:32:33;;;;;;;6.17;4.43;;;16.70;99.60;;;;;;5079589;28;20269;-72
2022/06/01 00:35:01;;;;;;;6.03;4.90;;;16.60;99.90;;;;;;5080003;28;20227;-73
2022/06/01 00:37:29;;;;;;;5.03;4.53;;;16.60;99.90;;;;;;5083577;28;20237;-72
2022/06/01 00:39:56;;;;;;;6.60;4.73;;;16.50;99.90;;;;;;5075949;28;20241;-72
2022/06/01 00:42:26;;;;;;;7.30;4.97;;;16.50;99.90;;;;;;5078713;28;20198;-72
2022/06/01 00:44:53;;;;;;;5.23;4.77;;;16.40;99.90;;;;;;5072269;28;20308;-73
2022/06/01 00:47:21;;;;;;;6.67;5.20;;;16.40;99.90;;;;;;5077792;28;20209;-73
2022/06/01 00:49:53;;;;;;;7.77;5.30;;;16.30;99.90;;;;;;5079052;28;20228;-72
2022/06/01 00:52:35;;;;;;;5.70;5.10;;;16.20;99.90;;;;;;5081000;28;20711;-72
2022/06/01 00:55:06;;;;;;;9.03;6.30;;;16.10;99.90;;;;;;5078815;28;20574;-74
2022/06/01 00:57:34;;;;;;;7.95;5.72;;;16.10;99.90;;;;;;5073575;28;20313;-72
2022/06/01 01:00:05;;;;;;;8.93;6.37;;;16.00;99.90;;;;;;5067041;28;20646;-72
2022/06/01 01:02:32;;;;;;;6.93;6.20;;;15.90;99.90;;;;;;5079481;28;20252;-72
2022/06/01 01:05:00;;;;;;;8.93;7.07;;;15.80;99.90;;;;;;5078067;28;20547;-71
2022/06/01 01:07:27;;;;;;;8.43;6.20;;;15.70;99.90;;;;;;5076579;28;20254;-72
2022/06/01 01:09:54;;;;;;;12.30;7.60;;;15.70;99.90;;;;;;5078626;28;20268;-72
2022/06/01 01:12:22;;;;;;;8.63;7.40;;;15.60;99.90;;;;;;5079664;28;20728;-71
2022/06/01 01:14:49;;;;;;;10.77;7.73;;;15.60;99.90;;;;;;5066855;28;20689;-71
2022/06/01 01:17:16;;;;;;;11.37;8.50;;;15.60;99.90;;;;;;5076307;28;20249;-72
2022/06/01 01:19:48;;;;;;;10.63;7.97;;;15.50;99.90;;;;;;5075255;28;20209;-72
2022/06/01 01:22:26;;;;;;;8.90;7.77;;;15.40;99.90;;;;;;5088910;28;20204;-72
2022/06/01 01:25:17;;;;;;;12.17;7.90;;;15.40;99.90;;;;;;5074761;28;20229;-72
2022/06/01 01:27:45;;;;;;;9.70;7.53;;;15.30;99.90;;;;;;5066625;28;20260;-72
2022/06/01 01:30:34;;;;;;;8.67;7.77;;;15.30;99.90;;;;;;5057693;28;20221;-72
2022/06/01 01:33:03;;;;;;;10.00;7.80;;;15.30;99.90;;;;;;5062753;28;20197;-72
2022/06/01 01:35:30;;;;;;;9.63;8.00;;;15.20;99.90;;;;;;5083861;28;20204;-71
2022/06/01 01:38:00;;;;;;;9.27;8.13;;;15.20;99.90;;;;;;5084364;28;20213;-72
2022/06/01 01:40:28;;;;;;;10.13;9.07;;;15.20;99.90;;;;;;5087786;28;20233;-72
2022/06/01 01:42:58;;;;;;;9.20;8.20;;;15.10;99.90;;;;;;5078399;28;20205;-71
2022/06/01 01:45:27;;;;;;;8.60;7.80;;;15.10;99.90;;;;;;5080361;28;20319;-72
2022/06/01 01:47:55;;;;;;;11.37;7.87;;;15.00;99.90;;;;;;5090710;28;20569;-72
2022/06/01 01:50:23;;;;;;;8.53;7.23;;;15.00;99.90;;;;;;5070873;28;20209;-71
2022/06/01 01:52:51;;;;;;;8.03;7.23;;;14.90;99.90;;;;;;5072527;28;20219;-72
2022/06/01 01:55:25;;;;;;;7.83;7.03;;;14.90;99.90;;;;;;5087492;28;20775;-73
2022/06/01 01:57:58;;;;;;;9.50;7.47;;;14.80;99.90;;;;;;5072417;28;20201;-72
2022/06/01 02:00:28;;;;;;;8.23;6.70;;;14.80;99.90;;;;;;5072452;28;20205;-72
2022/06/01 02:03:01;;;;;;;7.87;6.47;;;14.70;99.90;;;;;;5079819;28;20227;-72
2022/06/01 02:08:28;;;;;;;6.37;5.77;;;14.70;99.90;;;;;;5067206;28;20343;-71
2022/06/01 02:13:47;;;;;;;6.80;6.10;;;14.70;99.90;;;;;;5071176;28;20200;-71
2022/06/01 02:16:14;;;;;;;6.83;6.13;;;14.70;99.90;;;;;;5068000;28;20233;-71
2022/06/01 02:18:47;;;;;;;7.37;5.77;;;14.60;99.90;;;;;;5079083;28;20240;-71
2022/06/01 02:21:19;;;;;;;7.57;5.90;;;14.70;99.90;;;;;;5079090;28;20276;-71
2022/06/01 02:23:47;;;;;;;7.23;6.33;;;14.70;99.90;;;;;;5086337;28;20623;-71
2022/06/01 02:26:15;;;;;;;6.57;5.97;;;14.70;99.90;;;;;;5078716;28;20229;-71
2022/06/01 02:28:44;;;;;;;8.43;6.07;;;14.70;99.90;;;;;;5071207;28;20619;-72
2022/06/01 02:31:15;;;;;;;6.87;6.13;;;14.70;99.90;;;;;;5073279;28;20561;-72
2022/06/01 02:33:45;;;;;;;8.77;6.70;;;14.70;99.90;;;;;;5064981;28;20658;-72
2022/06/01 02:36:14;;;;;;;6.47;5.87;;;14.70;99.90;;;;;;5079014;28;20197;-71
2022/06/01 02:38:44;;;;;;;6.73;5.67;;;14.60;99.90;;;;;;5076397;28;20782;-72
2022/06/01 02:43:52;;;;;;;7.87;6.10;;;14.50;99.90;;;;;;5077701;28;20316;-72
2022/06/01 02:46:21;;;;;;;6.43;5.77;;;14.50;99.90;;;;;;5077982;28;20245;-71
2022/06/01 02:48:48;;;;;;;7.37;5.23;;;14.40;99.90;;;;;;5076984;28;20241;-72
2022/06/01 02:51:17;;;;;;;6.53;5.83;;;14.40;99.90;;;;;;5078277;28;20387;-71
2022/06/01 02:53:44;;;;;;;5.43;4.93;;;14.40;99.90;;;;;;5071840;28;20208;-72
2022/06/01 02:56:11;;;;;;;5.40;4.90;;;14.30;99.90;;;;;;5077221;28;20564;-71
2022/06/01 02:58:38;;;;;;;6.67;5.70;;;14.30;99.90;;;;;;5066936;28;20209;-72
2022/06/01 03:01:06;;;;;;;6.33;4.57;;;14.30;99.90;;;;;;5076650;28;20627;-71
2022/06/01 03:03:35;;;;;;;6.10;5.00;;;14.30;99.90;;;;;;5075838;28;20209;-71
2022/06/01 03:06:02;;;;;;;5.40;4.90;;;14.20;99.90;;;;;;5077628;28;20222;-72
2022/06/01 03:08:29;;;;;;;5.83;4.80;;;14.20;99.90;;;;;;5075721;28;20205;-72
2022/06/01 03:10:56;;;;;;;5.83;5.23;;;14.10;99.90;;;;;;5077899;28;20652;-70
2022/06/01 03:13:24;;;;;;;5.50;4.73;;;14.20;99.90;;;;;;5074059;28;20244;-71
2022/06/01 03:15:53;;;;;;;9.43;6.03;;;14.10;99.90;;;;;;5078880;28;20243;-71
2022/06/01 03:18:21;;;;;;;7.83;6.23;;;14.10;99.90;;;;;;5076661;28;20288;-72
2022/06/01 03:20:50;;;;;;;6.20;5.60;;;14.10;99.90;;;;;;5078574;28;20276;-72
2022/06/01 03:23:19;;;;;;;5.53;4.13;;;14.10;99.90;;;;;;5076485;28;20205;-72
2022/06/01 03:25:46;;;;;;;6.73;5.10;;;14.10;99.90;;;;;;5077712;28;20629;-72
2022/06/01 03:28:12;;;;;;;6.97;5.10;;;14.10;99.90;;;;;;5077465;28;20201;-72
2022/06/01 03:30:39;;;;;;;5.57;4.47;;;14.00;99.90;;;;;;5078056;28;20662;-72
2022/06/01 03:33:06;;;;;;;6.57;5.50;;;14.10;99.90;;;;;;5077228;28;20616;-71
2022/06/01 03:35:36;;;;;;;7.30;5.27;;;14.00;99.90;;;;;;5078014;28;20316;-72
2022/06/01 03:38:05;;;;;;;6.40;5.80;;;14.00;99.90;;;;;;5077007;28;20266;-71
2022/06/01 03:40:33;;;;;;;6.30;5.03;;;14.00;99.90;;;;;;5078161;28;20205;-73
2022/06/01 03:43:00;;;;;;;6.10;5.50;;;14.00;99.90;;;;;;5077668;28;20204;-73
2022/06/01 03:48:14;;;;;;;5.57;5.07;;;14.00;99.90;;;;;;5088293;28;20226;-72
2022/06/01 03:50:42;;;;;;;6.33;5.13;;;14.10;99.90;;;;;;5067039;28;20277;-71
2022/06/01 03:53:10;;;;;;;6.37;5.03;;;14.00;99.90;;;;;;5077672;28;20204;-72
2022/06/01 03:55:37;;;;;;;9.23;4.93;;;14.10;99.90;;;;;;5080290;28;20237;-72
2022/06/01 03:58:05;;;;;;;5.70;5.20;;;14.10;99.90;;;;;;5064430;28;20198;-71
2022/06/01 04:00:32;;;;;;;5.83;5.17;;;14.10;99.90;;;;;;5075947;28;20215;-73
2022/06/01 04:02:59;;;;;;;11.83;5.60;;;14.10;99.90;;;;;;5087646;28;20247;-71
2022/06/01 04:05:26;;;;;;;7.17;6.43;;;14.20;99.90;;;;;;5087408;28;20709;-72
2022/06/01 04:07:53;;;;;;;6.73;5.40;;;14.20;99.90;;;;;;5079068;28;20316;-71
2022/06/01 04:10:21;;;;;;;6.53;5.50;;;14.20;99.90;;;;;;5080246;28;20217;-71
2022/06/01 04:12:49;;;;;;;5.87;5.37;;;14.20;99.90;;;;;;5081140;28;20220;-72
2022/06/01 04:15:17;;;;;;;6.63;5.60;;;14.30;99.90;;;;;;5073046;28;20242;-72
2022/06/01 04:17:44;;;;;;;8.53;6.13;;;14.30;99.90;;;;;;5084058;28;20316;-72
2022/06/01 04:20:12;;;;;;;8.17;5.57;;;14.40;99.90;;;;;;5089190;28;20256;-72
2022/06/01 04:22:41;;;;;;;6.40;5.80;;;14.40;99.90;;;;;;5088239;28;20741;-71
2022/06/01 04:25:09;;;;;;;7.93;6.47;;;14.50;99.90;;;;;;5074101;28;20288;-72
2022/06/01 04:27:38;;;;;;;6.60;5.90;;;14.50;99.90;;;;;;5079265;28;20228;-72
2022/06/01 04:30:07;;;;;;;8.00;5.33;;;14.50;99.90;;;;;;5078783;28;20631;-71
2022/06/01 04:32:34;;;;;;;5.97;5.47;;;14.50;99.90;;;;;;5082031;28;20240;-71
2022/06/01 04:35:02;;;;;;;6.73;5.90;;;14.50;99.90;;;;;;5080097;28;20265;-71
2022/06/01 04:37:29;;;;;;;6.53;5.90;;;14.60;99.90;;;;;;5079586;28;20229;-71
2022/06/01 04:39:56;;;;;;;11.03;6.13;;;14.60;99.90;;;;;;5081154;28;20213;-71
2022/06/01 04:42:23;;;;;;;6.87;6.20;;;14.70;99.90;;;;;;5082693;28;20219;-72
2022/06/01 04:44:51;;;;;;;6.80;6.10;;;14.70;99.90;;;;;;5098147;28;20224;-71
2022/06/01 04:47:19;;;;;;;7.10;6.43;;;14.80;99.90;;;;;;5081784;28;20785;-72
2022/06/01 04:49:47;;;;;;;7.00;6.00;;;14.80;99.90;;;;;;5095580;28;20201;-72
2022/06/01 04:52:15;;;;;;;9.97;6.30;;;14.90;99.90;;;;;;5092057;28;20204;-71
2022/06/01 04:54:42;;;;;;;7.40;6.60;;;15.00;99.90;;;;;;5068195;28;20665;-72
2022/06/01 04:57:09;;;;;;;6.77;6.17;;;15.00;99.90;;;;;;5079344;28;20212;-72
2022/06/01 04:59:36;;;;;;;7.53;6.50;;;15.10;99.90;;;;;;5081132;28;20554;-72
2022/06/01 05:02:05;;;;;;;7.97;7.07;;;15.10;99.90;;;;;;5092441;28;20236;-72
2022/06/01 05:04:32;;;;;;;9.40;6.73;;;15.20;99.90;;;;;;5082249;28;20236;-74
2022/06/01 05:07:00;;;;;;;7.73;6.90;;;15.20;99.90;;;;;;5078708;28;20267;-68
2022/06/01 05:09:27;;;;;;;7.90;7.10;;;15.20;99.90;;;;;;5074869;28;20316;-69
2022/06/01 05:11:54;;;;;;;7.40;6.70;;;15.30;99.90;;;;;;5073398;28;20299;-68
2022/06/01 05:14:21;;;;;;;7.50;6.70;;;15.30;99.90;;;;;;5076011;28;20601;-68
2022/06/01 05:16:48;;;;;;;7.70;6.73;;;15.40;99.90;;;;;;5075164;28;20204;-68
2022/06/01 05:19:18;;;;;;;7.80;6.90;;;15.40;99.90;;;;;;5073995;28;20210;-68
2022/06/01 05:21:45;;;;;;;8.07;7.07;;;15.40;99.90;;;;;;5068202;28;20733;-68
2022/06/01 05:24:12;;;;;;;7.80;7.03;;;15.40;99.90;;;;;;5086044;28;20675;-69
2022/06/01 05:26:38;;;;;;;9.23;7.53;;;15.50;99.90;;;;;;5068474;28;20283;-67
2022/06/01 05:29:05;;;;;;;8.20;7.40;;;15.50;99.90;;;;;;5066475;28;20312;-67
2022/06/01 05:31:32;;;;;;;11.30;7.43;;;15.50;99.90;;;;;;5077842;28;20217;-67
2022/06/01 05:33:59;;;;;;;8.00;7.20;;;15.50;99.90;;;;;;5085957;28;20300;-69
2022/06/01 05:36:29;;;;;;;9.33;7.60;;;15.60;99.90;;;;;;5073837;28;20297;-70
2022/06/01 05:38:56;;;;;;;9.77;8.10;;;15.60;99.90;;;;;;5076604;28;20201;-72
2022/06/01 05:41:23;;;;;;;8.57;7.73;;;15.60;99.90;;;;;;5078770;28;20205;-71
2022/06/01 05:43:51;;;;;;;11.43;8.10;;;15.70;99.90;;;;;;5078081;28;20213;-69
2022/06/01 05:46:18;;;;;;;11.03;8.57;;;15.70;99.90;;;;;;5076513;28;20568;-68
2022/06/01 05:48:45;;;;;;;9.23;7.63;;;15.80;99.90;;;;;;5067108;28;20293;-69
2022/06/01 05:51:12;;;;;;;7.97;7.17;;;15.80;99.90;;;;;;5060431;28;20632;-70
2022/06/01 05:53:40;;;;;;;11.27;8.00;;;15.80;99.90;;;;;;5075150;28;20541;-72
2022/06/01 05:56:07;;;;;;;9.70;7.27;;;15.90;99.90;;;;;;5080315;28;20228;-69
2022/06/01 05:58:34;;;;;;;7.70;7.00;;;16.00;99.90;;;;;;5077655;28;20201;-68
2022/06/01 06:01:05;;;;;;;9.83;7.73;;;16.00;99.90;;;;;;5079111;28;20208;-72
2022/06/01 06:03:33;;;;;;;9.83;7.50;;;16.00;99.90;;;;;;5073884;28;20266;-69
2022/06/01 06:06:13;;;;;;;8.00;7.00;;;15.90;99.90;;;;;;5077329;28;20346;-70
2022/06/01 06:08:44;;;;;;;8.53;7.73;;;15.90;99.90;;;;;;5083973;28;20204;-68
2022/06/01 06:11:12;;;;;;;8.40;7.30;;;15.90;99.90;;;;;;5076917;28;20200;-69
2022/06/01 06:13:38;;;;;;;8.30;7.50;;;15.90;99.90;;;;;;5073953;28;20565;-68
2022/06/01 06:16:06;;;;;;;9.00;7.57;;;15.90;99.90;;;;;;5074494;28;21139;-68
2022/06/01 06:18:33;;;;;;;8.37;7.30;;;15.90;99.90;;;;;;5081545;28;20288;-68
2022/06/01 06:21:01;;;;;;;8.73;7.60;;;15.90;99.90;;;;;;5074249;28;20233;-68
2022/06/01 06:23:28;;;;;;;9.23;7.93;;;16.00;99.90;;;;;;5074848;28;20233;-67
2022/06/01 06:25:56;;;;;;;8.53;7.23;;;16.00;99.90;;;;;;5075998;28;20212;-70
2022/06/01 06:28:23;;;;;;;8.20;6.57;;;16.00;99.90;;;;;;5088442;28;20587;-71
2022/06/01 06:30:51;;;;;;;7.30;6.60;;;16.00;99.90;;;;;;5076901;28;20209;-69
2022/06/01 06:33:18;;;;;;;7.77;6.43;;;16.10;99.90;;;;;;5075962;28;20220;-69
2022/06/01 06:35:45;;;;;;;10.00;6.27;;;16.10;99.90;;;;;;5076107;28;20308;-69
2022/06/01 06:38:12;;;;;;;6.47;5.87;;;16.10;99.90;;;;;;5075594;28;20610;-70
2022/06/01 06:40:39;;;;;;;6.77;6.07;;;16.20;99.90;;;;;;5086307;28;20200;-68
2022/06/01 06:43:07;;;;;;;7.47;5.70;;;16.20;99.90;;;;;;5078387;28;20700;-70
2022/06/01 06:45:35;;;;;;;7.70;6.67;;;16.20;99.90;;;;;;5075245;28;20628;-68
2022/06/01 06:48:02;;;;;;;8.00;6.67;;;16.20;99.90;;;;;;5073349;28;20252;-68
2022/06/01 06:50:29;;;;;;;6.73;5.97;;;16.30;99.90;;;;;;5071213;28;20259;-68
2022/06/01 06:52:55;;;;;;;8.25;6.63;;;16.30;99.90;;;;;;5087712;28;20251;-68
2022/06/01 06:55:22;;;;;;;8.13;6.93;;;16.30;99.90;;;;;;5080591;28;20266;-69
2022/06/01 06:57:49;;;;;;;7.47;6.57;;;16.30;99.90;;;;;;5074231;28;20209;-68
2022/06/01 07:00:18;;;;;;;7.57;6.47;;;16.30;99.90;;;;;;5075368;28;20274;-69
2022/06/01 07:02:45;;;;;;;9.25;6.78;;;16.20;99.90;;;;;;5074996;28;20205;-69
2022/06/01 07:06:08;;;;;;;7.50;6.70;;;16.20;99.90;;;;;;5075344;28;20300;-69
2022/06/01 07:08:03;;;;;;;7.70;6.57;;;16.30;99.90;;;;;;5073931;28;20266;-69
2022/06/01 07:10:30;;;;;;;8.18;7.38;;;16.30;99.90;;;;;;5074434;28;20725;-68
2022/06/01 07:12:57;;;;;;;7.23;6.30;;;16.30;99.90;;;;;;5076341;28;20201;-70
2022/06/01 07:15:26;;;;;;;8.97;6.87;;;16.30;99.90;;;;;;5075503;28;20265;-69
2022/06/01 07:17:53;;;;;;;7.00;6.30;;;16.30;99.90;;;;;;5076557;28;20291;-70
2022/06/01 07:20:20;;;;;;;12.27;9.53;;;16.30;99.90;;;;;;5081281;28;20247;-70
2022/06/01 07:22:47;;;;;;;7.63;6.93;;;16.40;99.90;;;;;;5081879;28;20213;-69
2022/06/01 07:25:14;;;;;;;16.80;7.73;;;16.40;99.90;;;;;;5081504;28;20624;-70
2022/06/01 07:27:42;;;;;;;9.27;6.40;;;16.40;99.90;;;;;;5075605;28;20665;-69
2022/06/01 07:30:10;;;;;;;6.20;5.60;;;16.50;99.90;;;;;;5076032;28;20228;-70
2022/06/01 07:32:38;;;;;;;8.68;6.15;;;16.50;99.90;;;;;;5069246;28;20209;-70
2022/06/01 07:35:06;;;;;;;6.33;5.70;;;16.60;99.90;;;;;;5076295;28;20229;-70
2022/06/01 07:43:08;;;;;;;5.73;5.13;;;16.80;99.90;;;;;;5075754;28;20213;-70
2022/06/01 07:45:36;;;;;;;5.03;4.53;;;16.90;99.90;;;;;;5089934;28;20661;-70
2022/06/01 07:48:06;;;;;;;9.23;5.45;;;17.00;99.90;;;;;;5090038;28;20229;-70
2022/06/01 07:50:34;;;;;;;5.75;5.22;;;17.10;99.90;;;;;;5087969;28;20734;-70
2022/06/01 07:53:02;;;;;;;5.43;4.90;;;17.20;99.90;;;;;;5089553;28;20678;-70
2022/06/01 07:55:29;;;;;;;6.10;4.25;;;17.20;99.90;;;;;;5091099;28;20211;-70
2022/06/01 07:57:56;;;;;;;7.78;5.80;;;17.20;99.90;;;;;;5088573;28;20224;-70
2022/06/01 08:00:23;;;;;;;6.93;5.35;;;17.30;99.90;;;;;;5090211;28;20205;-69
2022/06/01 08:02:51;;;;;;;6.20;5.55;;;17.40;99.90;;;;;;5077387;28;20237;-69
2022/06/01 08:05:23;;;;;;;7.13;6.43;;;17.40;99.90;;;;;;5075154;28;20216;-70
2022/06/01 08:07:50;;;;;;;8.90;6.47;;;17.40;99.90;;;;;;5078519;28;20248;-70
2022/06/01 08:10:20;;;;;;;6.95;6.25;;;17.40;99.90;;;;;;5093702;28;20281;-70
2022/06/01 08:15:32;;;;;;;6.40;5.75;;;17.40;99.90;;;;;;5067282;28;20720;-69
2022/06/01 08:17:59;;;;;;;8.93;6.00;;;17.40;99.90;;;;;;5087044;28;20233;-71
2022/06/01 08:20:30;;;;;;;6.67;5.97;;;17.40;99.90;;;;;;5087222;28;20212;-71
2022/06/01 08:22:57;;;;;;;8.30;7.13;;;17.30;99.90;;;;;;5084506;28;20201;-70
2022/06/01 08:25:25;;;;;;;7.63;5.88;;;17.30;99.90;;;;;;5079309;28;20718;-70
2022/06/01 08:27:53;;;;;;;6.90;5.50;;;17.20;99.90;;;;;;5092405;28;20221;-70
2022/06/01 08:30:23;;;;;;;5.18;4.68;;;17.20;99.90;;;;;;5090349;28;20749;-70
2022/06/01 08:32:51;;;;;;;12.20;10.25;;;17.20;99.90;;;;;;5082042;28;20231;-71
2022/06/01 08:35:24;;;;;;;6.38;4.88;;;17.30;99.90;;;;;;5090369;28;20205;-70
2022/06/01 08:37:52;;;;;;;4.78;4.32;;;17.50;99.90;;;;;;5089754;28;20262;-70
2022/06/01 08:40:23;;;;;;;5.28;4.35;;;17.80;99.90;;;;;;5090168;28;20275;-69
2022/06/01 08:42:55;;;;;;;5.50;4.78;;;18.10;99.90;;;;;;5090898;28;20197;-70
2022/06/01 08:45:24;;;;;;;5.95;4.72;;;18.40;99.90;;;;;;5097143;28;20200;-69
2022/06/01 08:47:51;;;;;;;4.35;3.97;;;18.60;99.90;;;;;;5077797;28;20290;-69
2022/06/01 08:50:24;;;;;;;7.13;5.13;;;18.60;99.90;;;;;;5078207;28;20245;-69
2022/06/01 08:52:55;;;;;;;5.15;4.65;;;18.60;99.90;;;;;;5081152;28;20205;-69
2022/06/01 08:55:23;;;;;;;5.28;4.68;;;18.60;99.90;;;;;;5092821;28;20588;-70
2022/06/01 08:57:56;;;;;;;4.93;4.18;;;18.50;99.90;;;;;;5092335;28;20653;-70
2022/06/01 09:00:27;;;;;;;4.88;4.38;;;18.40;99.90;;;;;;5095133;28;20230;-70
2022/06/01 09:03:01;;;;;;;6.95;4.60;;;18.30;99.90;;;;;;5089002;28;20627;-70
2022/06/01 09:05:38;;;;;;;4.35;3.92;;;18.30;99.90;;;;;;5098044;28;20226;-69
2022/06/01 09:08:12;;;;;;;4.50;4.10;;;18.30;99.90;;;;;;5096929;28;20672;-70
2022/06/01 09:10:59;;;;;;;5.07;3.90;;;18.40;99.90;;;;;;5086720;28;20247;-69
2022/06/01 09:13:32;;;;;;;3.33;3.13;;;18.70;99.90;;;;;;5066973;28;20197;-70
2022/06/01 09:16:03;;;;;;;3.53;3.08;;;18.80;99.90;;;;;;5087061;28;20228;-69
2022/06/01 09:18:36;;;;;;;2.92;2.63;;;18.90;99.90;;;;;;5090405;28;20272;-68
2022/06/01 09:23:48;;;;;;;3.40;3.10;;;19.20;99.90;;;;;;5070885;28;20201;-71
2022/06/01 09:26:27;;;;;;;3.53;3.10;;;19.40;99.90;;;;;;5093581;28;20231;-71
2022/06/01 09:28:56;;;;;;;3.85;3.10;;;19.50;99.90;;;;;;5086381;28;20233;-69
2022/06/01 09:31:30;;;;;;;3.38;2.47;;;19.60;99.90;;;;;;5076064;28;20267;-70
2022/06/01 09:34:16;;;;;;;3.10;2.80;;;19.60;99.90;;;;;;5066943;28;20646;-70
2022/06/01 09:37:02;;;;;;;3.40;3.10;;;19.50;99.90;;;;;;5068408;28;20540;-72
2022/06/01 09:39:31;;;;;;;4.03;3.00;;;19.40;99.90;;;;;;5070314;28;20204;-71
2022/06/01 09:42:13;;;;;;;4.20;3.05;;;19.30;99.90;;;;;;5075804;28;20258;-69
2022/06/01 09:44:45;;;;;;;2.80;2.60;;;19.10;99.90;;;;;;5075088;28;20236;-69
2022/06/01 09:47:36;;;;;;;3.45;2.50;;;19.00;99.90;;;;;;5078530;28;20247;-69
2022/06/01 09:50:06;;;;;;;3.40;2.58;;;19.00;99.90;;;;;;5084376;28;20198;-70
2022/06/01 09:52:40;;;;;;;2.33;2.17;;;19.00;99.90;;;;;;5067960;28;20205;-69
2022/06/01 09:55:16;;;;;;;2.67;2.33;;;19.00;99.90;;;;;;5073606;28;20210;-70
2022/06/01 09:57:43;;;;;;;2.97;2.67;;;19.10;99.90;;;;;;5072387;28;20320;-69
2022/06/01 10:06:16;;;;;;;2.80;2.53;;;19.60;99.90;;;;;;5076097;28;20204;-69
2022/06/01 10:08:57;;;;;;;3.38;2.22;;;19.90;99.90;;;;;;5069260;28;20255;-69
2022/06/01 10:11:37;;;;;;;2.70;2.17;;;20.20;99.90;;;;;;5069310;28;20681;-68
2022/06/01 10:14:19;;;;;;;3.28;2.58;;;20.50;99.90;;;;;;5073100;28;20212;-70
2022/06/01 10:17:02;;;;;;;3.50;2.45;;;20.60;99.90;;;;;;5069893;28;20233;-68
2022/06/01 10:19:33;;;;;;;2.63;2.42;;;20.70;99.90;;;;;;5069603;28;20225;-69
2022/06/01 10:22:05;;;;;;;2.40;2.20;;;20.90;99.90;;;;;;5071868;28;20237;-68
2022/06/01 10:24:39;;;;;;;2.50;2.30;;;21.00;99.90;;;;;;5078875;28;20214;-69
2022/06/01 10:27:09;;;;;;;3.53;2.13;;;21.10;99.90;;;;;;5072482;28;20228;-69
2022/06/01 10:29:39;;;;;;;3.95;2.20;;;21.30;99.90;;;;;;5072413;28;20239;-69
2022/06/01 10:32:09;;;;;;;4.18;2.30;;;21.50;99.90;;;;;;5071598;28;20312;-68
2022/06/01 10:34:45;;;;;;;2.65;2.33;;;21.90;99.90;;;;;;5077308;28;20227;-69
2022/06/01 10:37:21;;;;;;;2.30;2.10;;;22.20;99.90;;;;;;5075916;28;20223;-69
2022/06/01 10:39:53;;;;;;;2.45;2.25;;;22.10;99.90;;;;;;5064225;28;20213;-68
2022/06/01 10:43:16;;;;;;;3.85;1.98;;;22.20;99.90;;;;;;5073587;28;20225;-68
2022/06/01 10:45:15;;;;;;;2.72;1.75;;;22.30;99.90;;;;;;5069175;28;20212;-68
2022/06/01 10:47:55;;;;;;;2.20;2.00;;;22.40;99.90;;;;;;5075031;28;20209;-69
2022/06/01 10:50:26;;;;;;;1.95;1.77;;;22.50;99.90;;;;;;5065255;28;20269;-68
2022/06/01 10:53:01;;;;;;;2.17;1.98;;;22.60;99.90;;;;;;5071091;28;20297;-68
2022/06/01 10:55:31;;;;;;;4.53;2.25;;;22.80;99.90;;;;;;5067869;28;20197;-68
2022/06/01 10:58:01;;;;;;;1.65;1.55;;;22.90;99.90;;;;;;5069403;28;20205;-68
2022/06/01 11:00:34;;;;;;;2.60;1.60;;;23.00;99.90;;;;;;5064690;28;20299;-68
2022/06/01 11:03:42;;;;;;;1.90;1.80;;;23.10;99.90;;;;;;5064658;28;20212;-67
2022/06/01 11:06:28;;;;;;;2.42;1.80;;;23.30;99.90;;;;;;5066896;28;20280;-69
2022/06/01 11:09:02;;;;;;;2.10;1.90;;;23.40;99.90;;;;;;5066444;28;20263;-67
2022/06/01 11:11:42;;;;;;;1.52;1.42;;;23.40;99.90;;;;;;5064246;28;20212;-68
2022/06/01 11:14:21;;;;;;;2.90;1.70;;;23.20;99.90;;;;;;5062692;28;20217;-69
2022/06/01 11:16:57;;;;;;;4.25;2.00;;;23.20;99.90;;;;;;5070464;28;20217;-69
2022/06/01 11:19:41;;;;;;;4.00;1.70;;;23.40;99.90;;;;;;5069205;28;20199;-67
2022/06/01 11:22:23;;;;;;;2.88;2.28;;;23.40;99.90;;;;;;5072132;28;20227;-67
2022/06/01 11:25:07;;;;;;;1.95;1.48;;;23.40;99.90;;;;;;5075058;28;20212;-69
2022/06/01 11:27:46;;;;;;;4.22;1.70;;;23.50;99.90;;;;;;5071489;28;20201;-70
2022/06/01 11:30:19;;;;;;;2.03;1.90;;;23.50;99.90;;;;;;5072833;28;20236;-68
2022/06/01 11:32:53;;;;;;;3.55;1.73;;;23.60;99.80;;;;;;5070688;28;20669;-68
2022/06/01 11:35:29;;;;;;;2.10;1.50;;;23.60;99.70;;;;;;5067838;28;20205;-68
2022/06/01 11:38:02;;;;;;;1.90;1.50;;;23.50;98.50;;;;;;5071159;28;20629;-68
2022/06/01 11:40:41;;;;;;;2.28;1.83;;;23.50;97.80;;;;;;5069345;28;20308;-69
2022/06/01 11:43:17;;;;;;;3.55;1.70;;;23.30;97.00;;;;;;5067130;28;20673;-71
2022/06/01 11:45:49;;;;;;;2.17;1.40;;;23.10;97.30;;;;;;5070622;28;20679;-67
2022/06/01 11:48:23;;;;;;;1.77;1.30;;;22.80;97.60;;;;;;5061269;28;20316;-68
2022/06/01 11:51:13;;;;;;;1.80;1.70;;;22.60;97.80;;;;;;5072431;28;20549;-68
2022/06/01 11:53:59;;;;;;;3.95;1.38;;;22.50;98.10;;;;;;5078521;28;20202;-71
2022/06/01 11:56:36;;;;;;;3.50;1.95;;;22.30;97.70;;;;;;5080144;28;20268;-68
2022/06/01 11:59:14;;;;;;;3.00;1.83;;;22.10;97.90;;;;;;5070739;28;20200;-70
2022/06/01 12:01:54;;;;;;;2.13;1.92;;;22.00;98.80;;;;;;5072857;28;20205;-69
2022/06/01 12:04:30;;;;;;;1.85;1.73;;;21.80;99.20;;;;;;5074475;28;20226;-72
2022/06/01 12:07:08;;;;;;;3.83;1.98;;;21.70;99.90;;;;;;5076876;28;20282;-69
2022/06/01 12:09:47;;;;;;;4.93;1.90;;;21.50;99.90;;;;;;5079750;28;20307;-70
2022/06/01 12:12:42;;;;;;;4.30;1.60;;;21.40;99.90;;;;;;5083380;28;20223;-72
2022/06/01 12:15:19;;;;;;;2.10;1.55;;;21.20;99.90;;;;;;5076265;28;20251;-70
2022/06/01 12:18:16;;;;;;;2.03;1.45;;;21.10;99.90;;;;;;5078999;28;20294;-71
2022/06/01 12:20:47;;;;;;;1.20;1.10;;;21.10;99.90;;;;;;5075269;28;20725;-70
2022/06/01 12:29:56;;;;;;;2.00;1.17;;;21.80;96.00;;;;;;5073157;28;20223;-70
2022/06/01 12:32:23;;;;;;;1.48;1.25;;;22.00;95.60;;;;;;5076259;28;20713;-70
2022/06/01 12:35:08;;;;;;;0.75;0.75;;;22.20;94.30;;;;;;5071033;28;20597;-70
2022/06/01 12:37:40;;;;;;;1.05;0.80;;;22.50;93.20;;;;;;5073037;28;20219;-70
2022/06/01 12:40:14;;;;;;;0.82;0.82;;;22.70;92.30;;;;;;5082349;28;20220;-71
2022/06/01 12:42:45;;;;;;;1.30;1.20;;;22.90;91.50;;;;;;5084461;28;20240;-71
2022/06/01 12:45:16;;;;;;;2.25;1.58;;;23.00;92.30;;;;;;5063665;28;20229;-71
2022/06/01 12:47:50;;;;;;;1.98;1.40;;;23.20;92.40;;;;;;5078055;28;20197;-70
2022/06/01 12:50:21;;;;;;;3.35;1.40;;;23.30;92.60;;;;;;5082662;28;20213;-69
2022/06/01 12:52:48;;;;;;;3.42;1.60;;;23.20;92.90;;;;;;5081161;28;20304;-69
2022/06/01 12:55:21;;;;;;;2.40;1.50;;;23.10;93.50;;;;;;5083921;28;20261;-71
2022/06/01 12:57:51;;;;;;;4.05;1.60;;;23.10;94.40;;;;;;5090257;28;20283;-69
2022/06/01 13:00:21;;;;;;;3.08;1.70;;;23.00;94.50;;;;;;5092632;28;20240;-69
2022/06/01 13:02:48;;;;;;;1.70;1.48;;;23.10;95.10;;;;;;5080731;28;20568;-70
2022/06/01 13:05:23;;;;;;;2.58;1.35;;;23.20;95.30;;;;;;5090459;28;20236;-70
2022/06/01 13:07:54;;;;;;;3.55;1.50;;;23.30;95.20;;;;;;5091243;28;20207;-69
2022/06/01 13:10:25;;;;;;;1.80;1.38;;;23.10;94.80;;;;;;5087139;28;20291;-69
2022/06/01 13:13:02;;;;;;;2.38;1.67;;;23.00;95.00;;;;;;5071487;28;20288;-69
2022/06/01 13:15:29;;;;;;;3.55;1.90;;;22.90;95.60;;;;;;5064456;28;20233;-69
2022/06/01 13:17:59;;;;;;;3.50;2.03;;;23.00;96.00;;;;;;5073254;28;20705;-69
2022/06/01 13:20:36;;;;;;;2.13;1.80;;;23.00;95.60;;;;;;5078858;28;20232;-71
2022/06/01 13:23:05;;;;;;;3.17;1.80;;;23.00;95.50;;;;;;5070829;28;20197;-70
2022/06/01 13:25:35;;;;;;;2.50;1.80;;;23.00;95.70;;;;;;5081498;28;20295;-70
2022/06/01 13:28:03;;;;;;;1.98;1.77;;;23.10;95.40;;;;;;5078315;28;21494;-71
2022/06/01 13:30:33;;;;;;;3.15;1.40;;;23.20;95.20;;;;;;5079604;28;20737;-73
2022/06/01 13:33:00;;;;;;;3.67;1.30;;;23.40;95.00;;;;;;5073244;28;20197;-72
2022/06/01 13:35:35;;;;;;;1.52;1.27;;;23.60;93.20;;;;;;5076881;28;20212;-71
2022/06/01 13:38:06;;;;;;;1.77;1.00;;;23.80;92.00;;;;;;5081202;28;20213;-70